Time;durP1;ratioP1;P1;durP2;ratioP2;P2;SDS_P1;SDS_P2;PMS_P1;PMS_P2;Temp;Humidity;BMP_temperature;BMP_pressure;BME280_temperature;BME280_humidity;BME280_pressure;Samples;Min_cycle;Max_cycle;Signal;HPM_P1;HPM_P2
2023/04/23 00:00:47;;;;;;;21.27;11.90;;;;;;;;;;5031534;28;20037;-70
2023/04/23 00:03:13;;;;;;;22.70;12.32;;;;;;;;;;5031554;28;20033;-69
2023/04/23 00:05:40;;;;;;;22.83;12.38;;;;;;;;;;5031787;28;20043;-71
2023/04/23 00:08:06;;;;;;;22.55;12.25;;;;;;;;;;5031874;28;20425;-69
2023/04/23 00:10:31;;;;;;;20.85;11.73;;;;;;;;;;5031426;28;20156;-70
2023/04/23 00:12:56;;;;;;;24.77;12.18;;;;;;;;;;5030761;28;20061;-69
2023/04/23 00:15:22;;;;;;;22.13;12.32;;;;;;;;;;5031525;28;20378;-69
2023/04/23 00:17:47;;;;;;;23.63;12.75;;;;;;;;;;5035255;28;20040;-70
2023/04/23 00:20:13;;;;;;;23.25;12.20;;;;;;;;;;5031406;28;20028;-69
2023/04/23 00:22:38;;;;;;;23.38;12.48;;;;;;;;;;5031373;28;20057;-69
2023/04/23 00:25:04;;;;;;;23.75;13.05;;;;;;;;;;5030340;28;20021;-71
2023/04/23 00:27:29;;;;;;;30.83;13.25;;;;;;;;;;5029473;28;20025;-71
2023/04/23 00:29:54;;;;;;;23.92;12.95;;;;;;;;;;5030452;28;20036;-71
2023/04/23 00:32:21;;;;;;;23.00;12.60;;;;;;;;;;5029512;28;20043;-69
2023/04/23 00:34:48;;;;;;;23.55;12.80;;;;;;;;;;5029659;28;20022;-70
2023/04/23 00:37:13;;;;;;;25.35;13.25;;;;;;;;;;5028740;28;20029;-69
2023/04/23 00:39:38;;;;;;;21.80;11.90;;;;;;;;;;5031619;28;20021;-69
2023/04/23 00:42:10;;;;;;;20.30;12.03;;;;;;;;;;5031035;28;20029;-69
2023/04/23 00:44:36;;;;;;;23.08;13.02;;;;;;;;;;5029713;28;20272;-70
2023/04/23 00:47:01;;;;;;;26.25;13.63;;;;;;;;;;5029760;28;20538;-71
2023/04/23 00:49:27;;;;;;;23.80;12.18;;;;;;;;;;5030122;28;20113;-69
2023/04/23 00:51:52;;;;;;;30.40;13.27;;;;;;;;;;5028862;28;20025;-69
2023/04/23 00:54:17;;;;;;;23.00;12.10;;;;;;;;;;5034107;28;20017;-70
2023/04/23 00:56:43;;;;;;;28.03;13.43;;;;;;;;;;5026905;28;20291;-70
2023/04/23 00:59:08;;;;;;;26.55;12.65;;;;;;;;;;5026057;28;20296;-70
2023/04/23 01:01:34;;;;;;;23.63;12.80;;;;;;;;;;5028081;28;20060;-69
2023/04/23 01:03:59;;;;;;;27.20;13.38;;;;;;;;;;5028224;28;20033;-70
2023/04/23 01:06:27;;;;;;;23.50;12.82;;;;;;;;;;5030402;28;20018;-70
2023/04/23 01:08:52;;;;;;;24.30;13.10;;;;;;;;;;5028114;28;20083;-69
2023/04/23 01:11:18;;;;;;;22.23;11.70;;;;;;;;;;5030583;28;20021;-70
2023/04/23 01:13:43;;;;;;;22.58;13.48;;;;;;;;;;5029316;28;20102;-70
2023/04/23 01:16:09;;;;;;;23.88;13.35;;;;;;;;;;5027700;28;20044;-70
2023/04/23 01:18:35;;;;;;;27.50;14.30;;;;;;;;;;5029662;28;20029;-70
2023/04/23 01:21:00;;;;;;;25.13;13.57;;;;;;;;;;5028478;28;20018;-70
2023/04/23 01:23:26;;;;;;;25.77;13.73;;;;;;;;;;5028430;28;20017;-70
2023/04/23 01:25:51;;;;;;;22.35;12.88;;;;;;;;;;5028591;28;20394;-70
2023/04/23 01:28:17;;;;;;;27.77;14.43;;;;;;;;;;5025800;28;20074;-69
2023/04/23 01:30:42;;;;;;;24.90;13.40;;;;;;;;;;5029048;28;20465;-69
2023/04/23 01:33:08;;;;;;;33.55;14.65;;;;;;;;;;5028079;28;20029;-70
2023/04/23 01:35:34;;;;;;;25.92;14.43;;;;;;;;;;5029091;28;20018;-69
2023/04/23 01:38:01;;;;;;;24.23;13.88;;;;;;;;;;5027100;28;20414;-70
2023/04/23 01:40:26;;;;;;;30.75;15.38;;;;;;;;;;5029332;28;20025;-70
2023/04/23 01:42:51;;;;;;;33.53;15.20;;;;;;;;;;5031963;28;20025;-69
2023/04/23 01:45:18;;;;;;;30.47;15.03;;;;;;;;;;5030004;28;20112;-69
2023/04/23 01:47:44;;;;;;;31.73;15.23;;;;;;;;;;5028767;28;20292;-69
2023/04/23 01:50:09;;;;;;;31.23;14.93;;;;;;;;;;5027809;28;20017;-70
2023/04/23 01:52:35;;;;;;;30.38;15.68;;;;;;;;;;5028903;28;20021;-69
2023/04/23 01:55:01;;;;;;;32.45;14.27;;;;;;;;;;5029230;28;20131;-70
2023/04/23 01:57:26;;;;;;;31.52;15.38;;;;;;;;;;5026946;28;20026;-69
2023/04/23 01:59:53;;;;;;;35.17;15.97;;;;;;;;;;5030538;28;20025;-70
2023/04/23 02:02:19;;;;;;;26.42;14.20;;;;;;;;;;5029396;28;20765;-69
2023/04/23 02:04:46;;;;;;;27.50;14.55;;;;;;;;;;5029935;28;20052;-70
2023/04/23 02:07:11;;;;;;;29.88;14.57;;;;;;;;;;5030202;28;20022;-69
2023/04/23 02:09:37;;;;;;;31.30;15.53;;;;;;;;;;5029502;28;20032;-71
2023/04/23 02:12:02;;;;;;;27.83;14.53;;;;;;;;;;5032427;28;20428;-69
2023/04/23 02:14:27;;;;;;;34.78;15.18;;;;;;;;;;5033677;28;20248;-70
2023/04/23 02:16:53;;;;;;;32.25;16.00;;;;;;;;;;5033461;28;20083;-69
2023/04/23 02:19:18;;;;;;;34.67;15.32;;;;;;;;;;5033969;28;20136;-69
2023/04/23 02:21:43;;;;;;;30.13;15.87;;;;;;;;;;5034138;28;20021;-71
2023/04/23 02:24:08;;;;;;;30.30;14.70;;;;;;;;;;5033675;28;20257;-69
2023/04/23 02:26:33;;;;;;;25.52;12.35;;;;;;;;;;5032907;28;20028;-71
2023/04/23 02:28:59;;;;;;;34.08;18.23;;;;;;;;;;5032116;28;20100;-69
2023/04/23 02:31:24;;;;;;;35.13;17.45;;;;;;;;;;5032236;28;20021;-70
2023/04/23 02:33:50;;;;;;;33.05;16.80;;;;;;;;;;5032412;28;20026;-71
2023/04/23 02:36:15;;;;;;;35.63;17.92;;;;;;;;;;5031989;28;20488;-69
2023/04/23 02:38:41;;;;;;;36.83;16.03;;;;;;;;;;5027843;28;20025;-69
2023/04/23 02:41:06;;;;;;;30.90;16.25;;;;;;;;;;5038787;28;20851;-70
2023/04/23 02:43:31;;;;;;;34.53;15.88;;;;;;;;;;5033611;28;20056;-70
2023/04/23 02:45:56;;;;;;;39.53;17.45;;;;;;;;;;5032443;28;20782;-69
2023/04/23 02:48:22;;;;;;;30.60;15.50;;;;;;;;;;5035817;28;20057;-70
2023/04/23 02:50:48;;;;;;;41.40;19.35;;;;;;;;;;5031737;28;20363;-69
2023/04/23 02:53:13;;;;;;;33.53;16.00;;;;;;;;;;5033047;28;20028;-69
2023/04/23 02:55:38;;;;;;;41.30;18.00;;;;;;;;;;5031168;28;20100;-69
2023/04/23 02:58:03;;;;;;;37.70;17.37;;;;;;;;;;5031686;28;20028;-69
2023/04/23 03:00:28;;;;;;;39.03;17.73;;;;;;;;;;5031897;28;20749;-70
2023/04/23 03:02:54;;;;;;;35.17;17.13;;;;;;;;;;5030400;28;20260;-69
2023/04/23 03:05:19;;;;;;;36.75;18.27;;;;;;;;;;5030406;28;20028;-70
2023/04/23 03:07:44;;;;;;;39.67;18.75;;;;;;;;;;5031172;28;20045;-69
2023/04/23 03:10:09;;;;;;;38.80;18.25;;;;;;;;;;5032682;28;20470;-70
2023/04/23 03:12:35;;;;;;;40.85;18.25;;;;;;;;;;5031568;28;20030;-70
2023/04/23 03:15:00;;;;;;;42.08;19.80;;;;;;;;;;5031195;28;20103;-69
2023/04/23 03:17:25;;;;;;;41.95;19.52;;;;;;;;;;5031034;28;20049;-70
2023/04/23 03:19:50;;;;;;;37.93;19.57;;;;;;;;;;5032869;28;20109;-69
2023/04/23 03:22:15;;;;;;;38.50;19.58;;;;;;;;;;5030356;28;20268;-70
2023/04/23 03:24:41;;;;;;;39.97;19.50;;;;;;;;;;5031497;28;20056;-70
2023/04/23 03:27:06;;;;;;;37.35;18.80;;;;;;;;;;5029658;28;20283;-69
2023/04/23 03:29:31;;;;;;;41.72;18.30;;;;;;;;;;5030749;28;20032;-69
2023/04/23 03:31:56;;;;;;;39.57;18.93;;;;;;;;;;5030403;28;20032;-70
2023/04/23 03:34:21;;;;;;;39.75;20.02;;;;;;;;;;5030975;28;20268;-69
2023/04/23 03:36:47;;;;;;;40.50;19.07;;;;;;;;;;5030384;28;20537;-70
2023/04/23 03:39:13;;;;;;;46.00;19.38;;;;;;;;;;5032667;28;20271;-70
2023/04/23 03:41:38;;;;;;;41.30;20.23;;;;;;;;;;5034109;28;20013;-70
2023/04/23 03:44:03;;;;;;;40.57;20.37;;;;;;;;;;5030854;28;20029;-69
2023/04/23 03:46:28;;;;;;;46.87;21.60;;;;;;;;;;5031758;28;20299;-69
2023/04/23 03:48:54;;;;;;;39.80;20.10;;;;;;;;;;5030319;28;20276;-70
2023/04/23 03:51:19;;;;;;;37.47;18.02;;;;;;;;;;5031757;28;20025;-70
2023/04/23 03:53:45;;;;;;;41.25;20.50;;;;;;;;;;5032546;28;20110;-69
2023/04/23 03:56:10;;;;;;;42.85;21.67;;;;;;;;;;5030320;28;20013;-69
2023/04/23 03:58:35;;;;;;;38.95;19.70;;;;;;;;;;5031403;28;20091;-69
2023/04/23 04:01:00;;;;;;;36.37;17.43;;;;;;;;;;5031515;28;20390;-69
2023/04/23 04:03:26;;;;;;;30.75;15.38;;;;;;;;;;5034640;28;20337;-70
2023/04/23 04:05:51;;;;;;;43.22;19.20;;;;;;;;;;5032674;28;20045;-70
2023/04/23 04:08:16;;;;;;;39.30;17.67;;;;;;;;;;5031602;28;20479;-69
2023/04/23 04:10:41;;;;;;;38.33;18.20;;;;;;;;;;5030599;28;20021;-69
2023/04/23 04:13:07;;;;;;;41.08;18.50;;;;;;;;;;5029631;28;20271;-69
2023/04/23 04:15:32;;;;;;;39.72;17.50;;;;;;;;;;5030649;28;20431;-70
2023/04/23 04:17:58;;;;;;;32.53;15.13;;;;;;;;;;5030590;28;20022;-69
2023/04/23 04:20:23;;;;;;;40.97;21.05;;;;;;;;;;5030595;28;20018;-71
2023/04/23 04:22:48;;;;;;;39.17;14.47;;;;;;;;;;5031478;28;20088;-71
2023/04/23 04:25:14;;;;;;;38.28;17.88;;;;;;;;;;5030018;28;20278;-70
2023/04/23 04:27:40;;;;;;;34.37;18.30;;;;;;;;;;5029567;28;20025;-70
2023/04/23 04:30:07;;;;;;;36.08;17.38;;;;;;;;;;5029545;28;20307;-69
2023/04/23 04:32:33;;;;;;;33.15;16.58;;;;;;;;;;5028403;28;20091;-70
2023/04/23 04:34:58;;;;;;;34.75;18.13;;;;;;;;;;5030925;28;20486;-70
2023/04/23 04:37:23;;;;;;;35.65;15.70;;;;;;;;;;5028378;28;20044;-69
2023/04/23 04:39:48;;;;;;;31.23;14.52;;;;;;;;;;5030060;28;20024;-69
2023/04/23 04:42:14;;;;;;;38.80;18.48;;;;;;;;;;5033544;28;20014;-70
2023/04/23 04:44:40;;;;;;;34.75;16.88;;;;;;;;;;5029577;28;20025;-69
2023/04/23 04:47:06;;;;;;;31.27;16.65;;;;;;;;;;5029625;28;20025;-69
2023/04/23 04:49:32;;;;;;;28.05;13.05;;;;;;;;;;5028079;28;20512;-69
2023/04/23 04:51:57;;;;;;;35.28;18.00;;;;;;;;;;5027968;28;20045;-69
2023/04/23 04:54:22;;;;;;;35.63;16.53;;;;;;;;;;5028352;28;20022;-70
2023/04/23 04:56:47;;;;;;;33.53;16.33;;;;;;;;;;5029537;28;20421;-70
2023/04/23 04:59:12;;;;;;;38.90;17.20;;;;;;;;;;5029587;28;20272;-70
2023/04/23 05:01:38;;;;;;;30.10;15.07;;;;;;;;;;5029177;28;20047;-69
2023/04/23 05:04:03;;;;;;;28.85;15.10;;;;;;;;;;5028758;28;20275;-70
2023/04/23 05:06:28;;;;;;;25.33;12.80;;;;;;;;;;5030530;28;20025;-69
2023/04/23 05:08:53;;;;;;;33.83;15.68;;;;;;;;;;5029388;28;20022;-70
2023/04/23 05:11:19;;;;;;;20.88;10.40;;;;;;;;;;5029342;28;20474;-70
2023/04/23 05:13:45;;;;;;;29.25;14.68;;;;;;;;;;5029423;28;20032;-69
2023/04/23 05:16:10;;;;;;;15.38;7.65;;;;;;;;;;5029729;28;20014;-69
2023/04/23 05:18:36;;;;;;;29.20;15.07;;;;;;;;;;5028713;28;20021;-70
2023/04/23 05:21:01;;;;;;;29.67;15.27;;;;;;;;;;5028766;28;20021;-71
2023/04/23 05:23:26;;;;;;;31.17;14.10;;;;;;;;;;5027954;28;20025;-70
2023/04/23 05:25:54;;;;;;;26.53;13.13;;;;;;;;;;5028418;28;20284;-69
2023/04/23 05:28:20;;;;;;;24.42;12.18;;;;;;;;;;5027606;28;20765;-70
2023/04/23 05:30:45;;;;;;;29.60;14.52;;;;;;;;;;5029095;28;20017;-70
2023/04/23 05:33:11;;;;;;;28.97;11.83;;;;;;;;;;5028595;28;20088;-69
2023/04/23 05:35:36;;;;;;;27.83;15.10;;;;;;;;;;5027401;28;20260;-70
2023/04/23 05:38:02;;;;;;;28.30;14.90;;;;;;;;;;5027755;28;20087;-69
2023/04/23 05:40:27;;;;;;;23.80;12.25;;;;;;;;;;5029659;28;20059;-68
2023/04/23 05:42:52;;;;;;;23.13;11.85;;;;;;;;;;5028861;28;20028;-69
2023/04/23 05:45:17;;;;;;;23.83;12.43;;;;;;;;;;5031636;28;20026;-69
2023/04/23 05:47:42;;;;;;;24.97;13.97;;;;;;;;;;5029886;28;20287;-69
2023/04/23 05:50:10;;;;;;;24.63;14.17;;;;;;;;;;5027614;28;20818;-68
2023/04/23 05:52:36;;;;;;;21.35;12.02;;;;;;;;;;5028139;28;20271;-69
2023/04/23 05:55:01;;;;;;;22.40;12.02;;;;;;;;;;5027923;28;20036;-69
2023/04/23 05:57:26;;;;;;;24.08;12.73;;;;;;;;;;5028169;28;20013;-69
2023/04/23 05:59:52;;;;;;;24.97;13.93;;;;;;;;;;5028761;28;20029;-69
2023/04/23 06:02:17;;;;;;;26.30;12.93;;;;;;;;;;5031076;28;20283;-68
2023/04/23 06:04:42;;;;;;;14.77;7.33;;;;;;;;;;5027328;28;20029;-69
2023/04/23 06:07:07;;;;;;;17.70;9.10;;;;;;;;;;5026874;28;20287;-68
2023/04/23 06:09:32;;;;;;;24.10;12.00;;;;;;;;;;5027954;28;20264;-68
2023/04/23 06:11:58;;;;;;;21.67;11.90;;;;;;;;;;5029372;28;20470;-69
2023/04/23 06:14:23;;;;;;;17.13;10.40;;;;;;;;;;5028489;28;20300;-69
2023/04/23 06:16:48;;;;;;;21.83;11.53;;;;;;;;;;5028175;28;20036;-69
2023/04/23 06:19:13;;;;;;;22.63;10.47;;;;;;;;;;5026529;28;20268;-70
2023/04/23 06:21:38;;;;;;;21.10;10.87;;;;;;;;;;5029472;28;20271;-68
2023/04/23 06:24:04;;;;;;;19.40;10.23;;;;;;;;;;5029395;28;20290;-69
2023/04/23 06:26:30;;;;;;;15.10;6.00;;;;;;;;;;5028028;28;20014;-70
2023/04/23 06:28:55;;;;;;;12.57;7.43;;;;;;;;;;5028211;28;20029;-68
2023/04/23 06:31:20;;;;;;;16.15;9.95;;;;;;;;;;5029318;28;20490;-69
2023/04/23 06:33:45;;;;;;;18.65;10.50;;;;;;;;;;5029120;28;20370;-68
2023/04/23 06:36:10;;;;;;;18.13;7.60;;;;;;;;;;5028031;28;20087;-69
2023/04/23 06:38:36;;;;;;;16.90;9.18;;;;;;;;;;5024660;28;20367;-69
2023/04/23 06:41:02;;;;;;;15.57;7.97;;;;;;;;;;5031513;28;20052;-68
2023/04/23 06:43:27;;;;;;;16.38;9.13;;;;;;;;;;5030153;28;20033;-69
2023/04/23 06:45:52;;;;;;;19.17;9.17;;;;;;;;;;5029002;28;20033;-69
2023/04/23 06:48:18;;;;;;;16.73;9.07;;;;;;;;;;5028879;28;20259;-68
2023/04/23 06:50:43;;;;;;;14.05;5.05;;;;;;;;;;5029832;28;20496;-69
2023/04/23 06:53:08;;;;;;;14.63;7.93;;;;;;;;;;5027998;28;20018;-68
2023/04/23 06:55:34;;;;;;;10.77;8.00;;;;;;;;;;5029152;28;20018;-69
2023/04/23 06:57:59;;;;;;;10.23;4.47;;;;;;;;;;5032547;28;20257;-69
2023/04/23 07:00:25;;;;;;;17.58;8.82;;;;;;;;;;5033311;28;20098;-69
2023/04/23 07:02:50;;;;;;;14.55;8.48;;;;;;;;;;5032584;28;20447;-68
2023/04/23 07:05:16;;;;;;;16.52;7.50;;;;;;;;;;5031532;28;20045;-68
2023/04/23 07:07:42;;;;;;;13.85;5.60;;;;;;;;;;5034076;28;20052;-69
2023/04/23 07:10:08;;;;;;;13.88;7.38;;;;;;;;;;5033428;28;20009;-68
2023/04/23 07:12:33;;;;;;;11.00;7.00;;;;;;;;;;5034021;28;20561;-68
2023/04/23 07:14:58;;;;;;;13.50;7.13;;;;;;;;;;5034310;28;20045;-68
2023/04/23 07:17:23;;;;;;;10.90;5.77;;;;;;;;;;5029469;28;20272;-70
2023/04/23 07:19:48;;;;;;;12.30;7.57;;;;;;;;;;5031780;28;20326;-68
2023/04/23 07:22:13;;;;;;;12.37;6.93;;;;;;;;;;5032136;28;20020;-69
2023/04/23 07:24:40;;;;;;;14.02;6.35;;;;;;;;;;5032207;28;20815;-68
2023/04/23 07:27:05;;;;;;;14.95;7.28;;;;;;;;;;5032359;28;20100;-68
2023/04/23 07:29:30;;;;;;;15.85;6.75;;;;;;;;;;5031356;28;20159;-68
2023/04/23 07:31:55;;;;;;;10.53;6.20;;;;;;;;;;5031918;28;20547;-70
2023/04/23 07:34:21;;;;;;;6.75;4.32;;;;;;;;;;5031633;28;20253;-70
2023/04/23 07:36:46;;;;;;;7.47;5.50;;;;;;;;;;5032259;28;20048;-70
2023/04/23 07:39:11;;;;;;;10.63;4.47;;;;;;;;;;5030879;28;20275;-68
2023/04/23 07:41:37;;;;;;;6.18;4.45;;;;;;;;;;5032055;28;20256;-69
2023/04/23 07:44:02;;;;;;;7.85;3.90;;;;;;;;;;5032725;28;20021;-69
2023/04/23 07:46:27;;;;;;;4.20;3.10;;;;;;;;;;5031738;28;20083;-69
2023/04/23 07:48:52;;;;;;;5.07;2.20;;;;;;;;;;5032184;28;20661;-69
2023/04/23 07:51:17;;;;;;;5.00;2.80;;;;;;;;;;5032633;28;20276;-68
2023/04/23 07:53:43;;;;;;;6.10;3.55;;;;;;;;;;5031746;28;20021;-68
2023/04/23 07:56:08;;;;;;;6.47;4.33;;;;;;;;;;5034183;28;20032;-68
2023/04/23 07:58:34;;;;;;;8.53;4.80;;;;;;;;;;5032059;28;20267;-68
2023/04/23 08:01:00;;;;;;;7.03;4.45;;;;;;;;;;5031650;28;20049;-68
2023/04/23 08:03:26;;;;;;;8.88;4.28;;;;;;;;;;5031385;28;20024;-68
2023/04/23 08:05:52;;;;;;;4.43;2.80;;;;;;;;;;5031549;28;20025;-69
2023/04/23 08:08:17;;;;;;;5.75;3.17;;;;;;;;;;5029760;28;20105;-70
2023/04/23 08:10:42;;;;;;;5.77;3.77;;;;;;;;;;5031299;28;20025;-69
2023/04/23 08:13:07;;;;;;;4.78;3.55;;;;;;;;;;5030142;28;20267;-68
2023/04/23 08:15:32;;;;;;;6.57;3.33;;;;;;;;;;5031153;28;20033;-69
2023/04/23 08:17:58;;;;;;;5.27;3.60;;;;;;;;;;5031191;28;20322;-68
2023/04/23 08:20:23;;;;;;;3.80;2.53;;;;;;;;;;5031363;28;20308;-67
2023/04/23 08:22:49;;;;;;;8.00;3.80;;;;;;;;;;5031030;28;20022;-68
2023/04/23 08:25:14;;;;;;;8.27;4.15;;;;;;;;;;5028707;28;20268;-68
2023/04/23 08:27:40;;;;;;;9.48;3.85;;;;;;;;;;5030618;28;20348;-70
2023/04/23 08:30:06;;;;;;;7.37;3.43;;;;;;;;;;5031242;28;20018;-68
2023/04/23 08:32:31;;;;;;;5.72;2.50;;;;;;;;;;5030055;28;20264;-68
2023/04/23 08:34:57;;;;;;;6.50;3.33;;;;;;;;;;5031166;28;20028;-68
2023/04/23 08:37:22;;;;;;;6.53;3.10;;;;;;;;;;5028398;28;20072;-69
2023/04/23 08:39:47;;;;;;;7.10;2.33;;;;;;;;;;5030758;28;20051;-68
2023/04/23 08:42:31;;;;;;;2.63;1.83;;;;;;;;;;5031065;28;20753;-68
2023/04/23 08:44:56;;;;;;;9.73;2.83;;;;;;;;;;5031173;28;20025;-70
2023/04/23 08:47:23;;;;;;;3.72;2.05;;;;;;;;;;5028999;28;20076;-68
2023/04/23 08:49:52;;;;;;;2.63;1.75;;;;;;;;;;5030931;28;20557;-68
2023/04/23 08:52:21;;;;;;;3.40;2.22;;;;;;;;;;5029477;28;20026;-68
2023/04/23 08:54:51;;;;;;;6.43;2.40;;;;;;;;;;5027743;28;20636;-68
2023/04/23 08:57:16;;;;;;;;;;;;;;;;;;5031892;28;20040;-70
2023/04/23 08:59:42;;;;;;;2.40;1.87;;;;;;;;;;5028679;28;19909;-68
2023/04/23 09:02:09;;;;;;;3.15;1.90;;;;;;;;;;5029477;28;20037;-68
2023/04/23 09:04:34;;;;;;;4.82;2.78;;;;;;;;;;5030321;28;20022;-68
2023/04/23 09:06:59;;;;;;;3.92;1.83;;;;;;;;;;5028372;28;20032;-68
2023/04/23 09:09:26;;;;;;;6.38;3.08;;;;;;;;;;5030326;28;20111;-68
2023/04/23 09:11:51;;;;;;;3.33;1.65;;;;;;;;;;5029583;28;20021;-68
2023/04/23 09:14:17;;;;;;;6.18;1.88;;;;;;;;;;5029999;28;20020;-68
2023/04/23 09:16:43;;;;;;;4.78;1.58;;;;;;;;;;5028556;28;20033;-68
2023/04/23 09:19:09;;;;;;;5.60;1.38;;;;;;;;;;5029578;28;20031;-68
2023/04/23 09:21:35;;;;;;;6.55;1.63;;;;;;;;;;5030602;28;20022;-69
2023/04/23 09:24:03;;;;;;;3.45;1.50;;;;;;;;;;5029659;28;20043;-68
2023/04/23 09:26:28;;;;;;;3.67;2.03;;;;;;;;;;5028968;28;20055;-68
2023/04/23 09:28:54;;;;;;;6.43;2.47;;;;;;;;;;5028352;28;20562;-69
2023/04/23 09:31:20;;;;;;;2.20;1.37;;;;;;;;;;5030026;28;20014;-68
2023/04/23 09:33:49;;;;;;;2.33;1.60;;;;;;;;;;5028033;28;20009;-68
2023/04/23 09:36:15;;;;;;;5.20;1.52;;;;;;;;;;5030019;28;20029;-68
2023/04/23 09:38:40;;;;;;;7.03;2.50;;;;;;;;;;5025286;28;20539;-69
2023/04/23 09:41:25;;;;;;;3.20;1.70;;;;;;;;;;5029679;28;20287;-68
2023/04/23 09:43:54;;;;;;;4.50;1.77;;;;;;;;;;5025759;28;20504;-69
2023/04/23 09:46:41;;;;;;;1.92;1.33;;;;;;;;;;5029705;28;20649;-68
2023/04/23 09:49:06;;;;;;;1.02;0.75;;;;;;;;;;5030249;28;20020;-69
2023/04/23 09:51:34;;;;;;;4.63;1.52;;;;;;;;;;5028026;28;20026;-68
2023/04/23 09:54:00;;;;;;;3.60;1.77;;;;;;;;;;5029962;28;20372;-68
2023/04/23 09:56:25;;;;;;;2.28;1.77;;;;;;;;;;5031022;28;20017;-68
2023/04/23 09:58:51;;;;;;;3.45;2.00;;;;;;;;;;5029887;28;20018;-69
2023/04/23 10:01:16;;;;;;;4.40;2.43;;;;;;;;;;5029772;28;20353;-69
2023/04/23 10:03:42;;;;;;;9.83;1.83;;;;;;;;;;5029489;28;20386;-71
2023/04/23 10:06:07;;;;;;;4.70;1.98;;;;;;;;;;5028524;28;20745;-70
2023/04/23 10:08:33;;;;;;;6.77;3.07;;;;;;;;;;5028903;28;20024;-70
2023/04/23 10:10:58;;;;;;;8.75;1.50;;;;;;;;;;5029635;28;20256;-70
2023/04/23 10:13:24;;;;;;;2.85;1.15;;;;;;;;;;5029386;28;20474;-71
2023/04/23 10:15:49;;;;;;;4.32;2.10;;;;;;;;;;5029890;28;20429;-70
2023/04/23 10:18:15;;;;;;;9.15;3.28;;;;;;;;;;5029923;28;20398;-70
2023/04/23 10:20:41;;;;;;;9.85;2.55;;;;;;;;;;5029129;28;20112;-70
2023/04/23 10:23:07;;;;;;;5.40;1.77;;;;;;;;;;5029435;28;20110;-71
2023/04/23 10:25:33;;;;;;;10.90;1.92;;;;;;;;;;5032096;28;20022;-71
2023/04/23 10:28:00;;;;;;;8.27;1.92;;;;;;;;;;5029503;28;20685;-70
2023/04/23 10:30:25;;;;;;;2.88;0.80;;;;;;;;;;5029231;28;20005;-72
2023/04/23 10:32:52;;;;;;;4.53;1.10;;;;;;;;;;5032847;28;20063;-70
2023/04/23 10:35:17;;;;;;;4.32;1.83;;;;;;;;;;5035122;28;20018;-70
2023/04/23 10:37:43;;;;;;;2.47;1.00;;;;;;;;;;5032076;28;20205;-71
2023/04/23 10:40:11;;;;;;;5.68;1.55;;;;;;;;;;5033023;28;20403;-71
2023/04/23 10:42:38;;;;;;;2.72;1.27;;;;;;;;;;5032846;28;20017;-70
2023/04/23 10:45:07;;;;;;;9.35;1.63;;;;;;;;;;5033205;28;20064;-71
2023/04/23 10:47:32;;;;;;;3.95;1.10;;;;;;;;;;5032290;28;20021;-69
2023/04/23 10:50:16;;;;;;;3.57;1.03;;;;;;;;;;5032634;28;20096;-70
2023/04/23 10:52:42;;;;;;;5.18;0.85;;;;;;;;;;5032829;28;20057;-70
2023/04/23 10:55:15;;;;;;;3.33;1.13;;;;;;;;;;5032957;28;20486;-70
2023/04/23 10:58:13;;;;;;;1.85;1.00;;;;;;;;;;5032551;28;20119;-70
2023/04/23 11:00:45;;;;;;;6.18;2.13;;;;;;;;;;5001407;28;20506;-69
2023/04/23 11:03:29;;;;;;;0.77;0.60;;;;;;;;;;5022726;28;20071;-71
2023/04/23 11:05:54;;;;;;;6.65;1.08;;;;;;;;;;5029298;28;20028;-70
2023/04/23 11:08:19;;;;;;;7.40;1.40;;;;;;;;;;5031150;28;20017;-71
2023/04/23 11:10:53;;;;;;;2.33;0.77;;;;;;;;;;5031446;28;20259;-70
2023/04/23 11:13:19;;;;;;;4.72;1.13;;;;;;;;;;5029944;28;20106;-69
2023/04/23 11:15:45;;;;;;;2.28;1.05;;;;;;;;;;5032588;28;20092;-69
2023/04/23 11:18:10;;;;;;;2.35;0.90;;;;;;;;;;5031017;28;20390;-70
2023/04/23 11:20:35;;;;;;;2.13;0.90;;;;;;;;;;5032112;28;20024;-69
2023/04/23 11:23:01;;;;;;;3.25;0.90;;;;;;;;;;5031310;28;20226;-70
2023/04/23 11:25:27;;;;;;;3.38;0.90;;;;;;;;;;5030476;28;20026;-69
2023/04/23 11:27:52;;;;;;;1.77;0.70;;;;;;;;;;5031644;28;20021;-71
2023/04/23 11:30:22;;;;;;;5.65;1.13;;;;;;;;;;5028762;28;20098;-69
2023/04/23 11:32:48;;;;;;;2.42;1.02;;;;;;;;;;5026670;28;20013;-69
2023/04/23 11:35:14;;;;;;;6.10;0.93;;;;;;;;;;5031225;28;20497;-70
2023/04/23 11:37:40;;;;;;;3.13;0.80;;;;;;;;;;5030879;28;20071;-69
2023/04/23 11:40:09;;;;;;;3.10;0.70;;;;;;;;;;5030576;28;20095;-69
2023/04/23 11:42:53;;;;;;;1.45;0.63;;;;;;;;;;5030382;28;20374;-69
2023/04/23 11:45:19;;;;;;;1.17;0.80;;;;;;;;;;5029735;28;20116;-70
2023/04/23 11:47:45;;;;;;;1.63;0.60;;;;;;;;;;5030453;28;20487;-69
2023/04/23 11:50:15;;;;;;;6.40;1.27;;;;;;;;;;5026906;28;20017;-69
2023/04/23 11:52:42;;;;;;;0.55;0.45;;;;;;;;;;5030324;28;20029;-70
2023/04/23 11:55:07;;;;;;;5.47;0.90;;;;;;;;;;5029807;28;20041;-72
2023/04/23 11:57:39;;;;;;;3.15;0.80;;;;;;;;;;5031957;28;20031;-69
2023/04/23 12:00:23;;;;;;;5.95;3.13;;;;;;;;;;5030909;28;20029;-70
2023/04/23 12:02:54;;;;;;;3.10;1.25;;;;;;;;;;5026324;28;20025;-69
2023/04/23 12:05:22;;;;;;;3.33;1.20;;;;;;;;;;5029805;28;20026;-69
2023/04/23 12:07:50;;;;;;;1.50;0.65;;;;;;;;;;5027175;28;20021;-71
2023/04/23 12:10:16;;;;;;;3.42;0.70;;;;;;;;;;5030072;28;20017;-69
2023/04/23 12:12:42;;;;;;;4.32;0.98;;;;;;;;;;5029661;28;20379;-70
2023/04/23 12:15:07;;;;;;;6.27;0.77;;;;;;;;;;5031829;28;20160;-69
2023/04/23 12:17:32;;;;;;;5.70;0.98;;;;;;;;;;5030543;28;20268;-69
2023/04/23 12:19:57;;;;;;;1.53;1.10;;;;;;;;;;5032350;28;20029;-69
2023/04/23 12:22:26;;;;;;;1.00;0.50;;;;;;;;;;5030561;28;20064;-69
2023/04/23 12:24:52;;;;;;;0.55;0.40;;;;;;;;;;5030784;28;20044;-69
2023/04/23 12:27:19;;;;;;;2.65;1.08;;;;;;;;;;5031301;28;20430;-69
2023/04/23 12:29:46;;;;;;;4.80;0.80;;;;;;;;;;5026244;28;20021;-70
2023/04/23 12:32:11;;;;;;;3.17;0.55;;;;;;;;;;5031700;28;20018;-69
2023/04/23 12:34:51;;;;;;;1.67;0.73;;;;;;;;;;5030674;28;20380;-69
2023/04/23 12:37:17;;;;;;;1.20;0.73;;;;;;;;;;5029974;28;20310;-70
2023/04/23 12:39:42;;;;;;;5.00;1.00;;;;;;;;;;5026875;28;20081;-69
2023/04/23 12:42:09;;;;;;;5.88;0.80;;;;;;;;;;5021780;28;20032;-69
2023/04/23 12:44:35;;;;;;;1.63;0.77;;;;;;;;;;5022884;28;20096;-69
2023/04/23 12:47:04;;;;;;;4.85;0.82;;;;;;;;;;5027203;28;20162;-70
2023/04/23 12:49:30;;;;;;;1.30;0.73;;;;;;;;;;5026488;28;20049;-69
2023/04/23 12:51:56;;;;;;;4.85;0.88;;;;;;;;;;5023888;28;20065;-69
2023/04/23 12:54:25;;;;;;;5.65;1.05;;;;;;;;;;5023705;28;20014;-71
2023/04/23 12:56:50;;;;;;;3.67;0.90;;;;;;;;;;5026322;28;20026;-69
2023/04/23 12:59:15;;;;;;;3.42;1.10;;;;;;;;;;5029104;28;20033;-69
2023/04/23 13:01:41;;;;;;;2.60;1.63;;;;;;;;;;5026748;28;20033;-69
2023/04/23 13:04:06;;;;;;;3.33;1.45;;;;;;;;;;5024110;28;20109;-70
2023/04/23 13:06:31;;;;;;;6.00;1.38;;;;;;;;;;5024670;28;20029;-70
2023/04/23 13:08:57;;;;;;;8.00;0.53;;;;;;;;;;5026845;28;20399;-69
2023/04/23 13:11:22;;;;;;;2.47;0.52;;;;;;;;;;5029493;28;20295;-70
2023/04/23 13:13:47;;;;;;;4.03;1.20;;;;;;;;;;5027530;28;20025;-69
2023/04/23 13:16:14;;;;;;;2.10;0.63;;;;;;;;;;5029045;28;20034;-69
2023/04/23 13:18:39;;;;;;;3.08;0.80;;;;;;;;;;5027570;28;20025;-69
2023/04/23 13:21:04;;;;;;;4.30;1.10;;;;;;;;;;5028373;28;20525;-70
2023/04/23 13:23:29;;;;;;;2.08;0.68;;;;;;;;;;5027235;28;20021;-69
2023/04/23 13:25:54;;;;;;;4.10;0.73;;;;;;;;;;5031099;28;20593;-72
2023/04/23 13:28:19;;;;;;;2.80;0.93;;;;;;;;;;5027100;28;20298;-68
2023/04/23 13:30:45;;;;;;;2.83;0.50;;;;;;;;;;5027757;28;20287;-70
2023/04/23 13:33:10;;;;;;;7.63;1.20;;;;;;;;;;5029582;28;20363;-69
2023/04/23 13:35:36;;;;;;;1.30;0.60;;;;;;;;;;5027910;28;20025;-69
2023/04/23 13:38:02;;;;;;;5.60;1.05;;;;;;;;;;5028675;28;20064;-69
2023/04/23 13:40:27;;;;;;;7.15;1.40;;;;;;;;;;5028267;28;20390;-71
2023/04/23 13:42:53;;;;;;;1.33;0.50;;;;;;;;;;5027012;28;20103;-70
2023/04/23 13:45:19;;;;;;;3.30;0.68;;;;;;;;;;5028221;28;20326;-71
2023/04/23 13:47:44;;;;;;;5.40;0.75;;;;;;;;;;5025467;28;20402;-72
2023/04/23 13:50:10;;;;;;;5.70;1.48;;;;;;;;;;5031250;28;20025;-70
2023/04/23 13:52:36;;;;;;;2.30;0.95;;;;;;;;;;5025226;28;20060;-71
2023/04/23 13:55:02;;;;;;;2.80;0.52;;;;;;;;;;5029975;28;20013;-71
2023/04/23 13:57:28;;;;;;;1.95;0.30;;;;;;;;;;5025499;28;20028;-70
2023/04/23 13:59:57;;;;;;;3.28;0.82;;;;;;;;;;5027234;28;20033;-70
2023/04/23 14:02:22;;;;;;;0.90;0.43;;;;;;;;;;5027195;28;20216;-73
2023/04/23 14:04:48;;;;;;;1.17;0.25;;;;;;;;;;5024801;28;20032;-70
2023/04/23 14:07:13;;;;;;;4.03;0.80;;;;;;;;;;5029883;28;20482;-70
2023/04/23 14:09:38;;;;;;;3.27;0.70;;;;;;;;;;5030213;28;20264;-70
2023/04/23 14:12:03;;;;;;;3.43;1.50;;;;;;;;;;5032247;28;20017;-71
2023/04/23 14:14:29;;;;;;;1.27;0.70;;;;;;;;;;5032614;28;20029;-71
2023/04/23 14:16:54;;;;;;;4.32;0.90;;;;;;;;;;5031729;28;20025;-70
2023/04/23 14:19:19;;;;;;;1.63;0.60;;;;;;;;;;5030790;28;20026;-70
2023/04/23 14:21:45;;;;;;;1.02;0.40;;;;;;;;;;5029996;28;20052;-70
2023/04/23 14:24:17;;;;;;;1.27;0.60;;;;;;;;;;5030348;28;20104;-71